createdAt,value
2018-07-28T00:01:07.171Z,7.73
2018-07-28T00:03:41.677Z,11.30
2018-07-28T00:06:16.057Z,8.20
2018-07-28T00:08:50.769Z,7.97
2018-07-28T00:11:25.878Z,12.10
2018-07-28T00:14:00.809Z,7.27
2018-07-28T00:16:35.395Z,9.67
2018-07-28T00:19:11.397Z,8.80
2018-07-28T00:21:46.528Z,7.37
2018-07-28T00:24:21.111Z,7.33
2018-07-28T00:26:56.263Z,7.97
2018-07-28T00:29:30.934Z,8.10
2018-07-28T00:32:05.798Z,8.63
2018-07-28T00:34:40.504Z,8.07
2018-07-28T00:37:15.025Z,8.93
2018-07-28T00:39:49.947Z,8.03
2018-07-28T00:42:25.472Z,11.17
2018-07-28T00:45:00.286Z,9.80
2018-07-28T00:47:35.742Z,7.97
2018-07-28T00:50:11.702Z,9.00
2018-07-28T00:52:47.124Z,8.77
2018-07-28T00:55:22.751Z,7.87
2018-07-28T00:57:57.528Z,7.67
2018-07-28T01:00:32.558Z,8.43
2018-07-28T01:03:07.547Z,8.57
2018-07-28T01:05:42.373Z,7.53
2018-07-28T01:08:18.619Z,12.07
2018-07-28T01:10:53.536Z,9.53
2018-07-28T01:13:28.025Z,9.17
2018-07-28T01:16:02.653Z,8.43
2018-07-28T01:18:37.563Z,8.40
2018-07-28T01:21:13.018Z,10.27
2018-07-28T01:23:47.890Z,10.57
2018-07-28T01:26:22.794Z,8.23
2018-07-28T01:29:01.745Z,9.87
2018-07-28T01:31:37.103Z,11.83
2018-07-28T01:34:11.891Z,9.37
2018-07-28T01:36:46.383Z,9.27
2018-07-28T01:39:21.379Z,9.03
2018-07-28T01:41:56.621Z,12.67
2018-07-28T01:44:31.640Z,11.23
2018-07-28T01:47:06.245Z,8.17
2018-07-28T01:49:40.801Z,8.43
2018-07-28T01:52:15.358Z,9.47
2018-07-28T01:54:50.569Z,9.30
2018-07-28T01:57:25.390Z,8.50
2018-07-28T01:59:59.990Z,10.50
2018-07-28T02:02:34.594Z,8.47
2018-07-28T02:05:11.028Z,8.93
2018-07-28T02:07:46.196Z,9.43
2018-07-28T02:10:21.262Z,9.70
2018-07-28T02:12:55.516Z,9.63
2018-07-28T02:15:30.069Z,9.10
2018-07-28T02:18:05.277Z,14.27
2018-07-28T02:20:40.158Z,8.67
2018-07-28T02:23:15.142Z,8.90
2018-07-28T02:25:50.448Z,8.87
2018-07-28T02:28:25.319Z,9.33
2018-07-28T02:31:00.586Z,9.47
2018-07-28T02:33:37.255Z,9.57
2018-07-28T02:36:12.853Z,9.40
2018-07-28T02:38:48.452Z,11.83
2018-07-28T02:41:24.141Z,9.20
2018-07-28T02:44:00.615Z,9.00
2018-07-28T02:46:35.243Z,10.00
2018-07-28T02:49:12.698Z,9.73
2018-07-28T02:51:50.383Z,11.57
2018-07-28T02:54:28.444Z,9.23
2018-07-28T02:57:03.783Z,13.20
2018-07-28T02:59:42.353Z,9.97
2018-07-28T03:02:17.865Z,11.30
2018-07-28T03:04:54.508Z,11.27
2018-07-28T03:07:31.962Z,9.23
2018-07-28T03:10:06.741Z,10.70
2018-07-28T03:12:42.731Z,8.77
2018-07-28T03:15:32.573Z,9.90
2018-07-28T03:18:09.149Z,9.17
2018-07-28T03:20:43.741Z,9.47
2018-07-28T03:23:18.325Z,9.83
2018-07-28T03:25:52.932Z,10.33
2018-07-28T03:28:27.760Z,9.97
2018-07-28T03:31:03.056Z,9.13
2018-07-28T03:33:37.878Z,9.90
2018-07-28T03:36:12.823Z,10.10
2018-07-28T03:38:47.721Z,10.63
2018-07-28T03:41:22.347Z,11.40
2018-07-28T03:43:56.564Z,10.27
2018-07-28T03:46:31.519Z,15.83
2018-07-28T03:49:06.396Z,10.50
2018-07-28T03:51:41.404Z,10.10
2018-07-28T03:54:15.952Z,10.53
2018-07-28T03:56:50.380Z,11.70
2018-07-28T03:59:25.944Z,11.03
2018-07-28T04:02:00.546Z,10.70
2018-07-28T04:04:35.933Z,11.90
2018-07-28T04:07:10.901Z,14.27
2018-07-28T04:09:46.125Z,10.13
2018-07-28T04:12:20.684Z,12.40
2018-07-28T04:14:55.137Z,10.50
2018-07-28T04:17:29.655Z,10.67
2018-07-28T04:20:04.977Z,9.93
2018-07-28T04:22:40.374Z,10.20
2018-07-28T04:25:15.013Z,10.27
2018-07-28T04:27:50.192Z,13.93
2018-07-28T04:30:24.455Z,10.87
2018-07-28T04:32:59.945Z,12.00
2018-07-28T04:35:34.669Z,11.67
2018-07-28T04:38:10.667Z,12.63
2018-07-28T04:40:45.619Z,11.00
2018-07-28T04:43:21.741Z,11.63
2018-07-28T04:45:56.495Z,11.13
2018-07-28T04:48:31.071Z,11.00
2018-07-28T04:51:05.951Z,12.37
2018-07-28T04:53:40.475Z,11.17
2018-07-28T04:56:15.338Z,15.70
2018-07-28T04:58:50.317Z,10.23
2018-07-28T05:01:24.974Z,13.50
2018-07-28T05:03:59.908Z,10.60
2018-07-28T05:06:34.189Z,10.83
2018-07-28T05:09:12.304Z,11.03
2018-07-28T05:11:47.036Z,10.60
2018-07-28T05:14:22.885Z,14.00
2018-07-28T05:16:57.439Z,10.87
2018-07-28T05:19:31.827Z,13.97
2018-07-28T05:22:07.139Z,12.87
2018-07-28T05:24:41.902Z,11.20
2018-07-28T05:27:16.895Z,10.93
2018-07-28T05:29:51.409Z,11.67
2018-07-28T05:32:26.099Z,10.90
2018-07-28T05:35:00.700Z,11.20
2018-07-28T05:37:35.614Z,11.30
2018-07-28T05:40:10.311Z,11.80
2018-07-28T05:42:44.779Z,10.63
2018-07-28T05:45:19.122Z,11.20
2018-07-28T05:47:53.761Z,14.17
2018-07-28T05:50:28.093Z,11.73
2018-07-28T05:53:02.537Z,11.63
2018-07-28T05:55:37.184Z,11.07
2018-07-28T05:58:11.850Z,10.40
2018-07-28T06:00:46.540Z,11.77
2018-07-28T06:03:21.468Z,11.30
2018-07-28T06:05:55.942Z,10.73
2018-07-28T06:08:30.760Z,11.40
2018-07-28T06:11:05.303Z,11.57
2018-07-28T06:13:40.097Z,11.97
2018-07-28T06:16:14.494Z,11.43
2018-07-28T06:18:49.005Z,12.57
2018-07-28T06:21:23.714Z,11.33
2018-07-28T06:23:58.266Z,10.93
2018-07-28T06:26:32.789Z,11.23
2018-07-28T06:29:07.138Z,11.63
2018-07-28T06:31:41.988Z,11.67
2018-07-28T06:34:16.711Z,11.40
2018-07-28T06:36:51.088Z,11.57
2018-07-28T06:39:25.437Z,11.03
2018-07-28T06:41:59.918Z,10.07
2018-07-28T06:44:34.670Z,13.60
2018-07-28T06:47:09.079Z,9.70
2018-07-28T06:49:43.384Z,10.10
2018-07-28T06:52:18.908Z,9.23
2018-07-28T06:54:53.189Z,10.67
2018-07-28T06:57:27.741Z,9.20
2018-07-28T07:00:06.221Z,9.20
2018-07-28T07:02:41.039Z,9.43
2018-07-28T07:05:16.059Z,9.37
2018-07-28T07:07:50.332Z,9.90
2018-07-28T07:10:24.938Z,10.13
2018-07-28T07:12:59.759Z,11.80
2018-07-28T07:15:34.356Z,11.23
2018-07-28T07:18:09.016Z,10.67
2018-07-28T07:20:44.253Z,9.87
2018-07-28T07:23:18.650Z,10.67
2018-07-28T07:25:52.958Z,10.50
2018-07-28T07:28:27.682Z,10.50
2018-07-28T07:31:02.051Z,11.00
2018-07-28T07:33:36.378Z,10.80
2018-07-28T07:36:10.775Z,10.63
2018-07-28T07:38:45.225Z,10.40
2018-07-28T07:41:19.549Z,10.73
2018-07-28T07:43:54.162Z,10.40
2018-07-28T07:46:28.569Z,11.20
2018-07-28T07:49:03.649Z,13.27
2018-07-28T07:51:39.007Z,11.37
2018-07-28T07:54:13.687Z,11.53
2018-07-28T07:56:48.448Z,11.87
2018-07-28T07:59:23.273Z,10.90
2018-07-28T08:01:57.615Z,10.93
2018-07-28T08:04:32.292Z,10.80
2018-07-28T08:07:06.130Z,11.07
2018-07-28T08:09:40.552Z,11.60
2018-07-28T08:12:15.744Z,11.63
2018-07-28T08:14:50.016Z,11.30
2018-07-28T08:17:25.192Z,10.77
2018-07-28T08:20:00.306Z,10.80
2018-07-28T08:22:34.033Z,10.87
2018-07-28T08:25:09.461Z,10.23
2018-07-28T08:27:43.946Z,11.00
2018-07-28T08:30:18.731Z,9.90
2018-07-28T08:32:54.123Z,10.27
2018-07-28T08:35:28.396Z,11.07
2018-07-28T08:38:02.392Z,9.60
2018-07-28T08:40:37.868Z,9.10
2018-07-28T08:43:13.187Z,10.37
2018-07-28T08:45:48.281Z,9.73
2018-07-28T08:48:24.645Z,8.70
2018-07-28T08:50:59.341Z,9.57
2018-07-28T08:53:34.906Z,9.13
2018-07-28T08:56:09.470Z,9.47
2018-07-28T08:58:45.006Z,9.17
2018-07-28T09:01:20.755Z,9.97
2018-07-28T09:03:57.499Z,7.87
2018-07-28T09:06:32.369Z,7.47
2018-07-28T09:09:09.935Z,7.40
2018-07-28T09:11:44.298Z,7.93
2018-07-28T09:14:19.809Z,8.60
2018-07-28T09:16:55.122Z,11.37
2018-07-28T09:19:30.887Z,7.35
2018-07-28T09:22:05.794Z,6.70
2018-07-28T09:24:59.695Z,7.10
2018-07-28T09:27:52.412Z,7.37
2018-07-28T09:30:28.283Z,6.70
2018-07-28T09:33:03.179Z,8.78
2018-07-28T09:35:37.614Z,8.58
2018-07-28T09:38:22.480Z,6.65
2018-07-28T09:41:13.920Z,6.10
2018-07-28T09:43:54.097Z,5.97
2018-07-28T09:46:35.535Z,5.83
2018-07-28T09:49:32.052Z,6.05
2018-07-28T09:52:25.931Z,5.97
2018-07-28T09:55:04.035Z,6.08
2018-07-28T09:57:38.672Z,6.20
2018-07-28T10:00:18.991Z,5.92
2018-07-28T10:02:54.657Z,6.62
2018-07-28T10:05:29.499Z,6.40
2018-07-28T10:08:07.494Z,6.67
2018-07-28T10:10:42.597Z,8.75
2018-07-28T10:13:17.497Z,5.40
2018-07-28T10:15:51.956Z,5.33
2018-07-28T10:18:32.706Z,5.45
2018-07-28T10:21:52.945Z,5.37
2018-07-28T10:24:30.725Z,5.50
2018-07-28T10:27:05.633Z,4.85
2018-07-28T10:29:40.209Z,5.15
2018-07-28T10:32:14.751Z,6.75
2018-07-28T10:34:49.104Z,6.55
2018-07-28T10:37:23.473Z,5.47
2018-07-28T10:39:58.327Z,7.08
2018-07-28T10:42:32.522Z,5.85
2018-07-28T10:45:07.928Z,5.10
2018-07-28T10:47:42.850Z,5.00
2018-07-28T10:50:17.858Z,4.60
2018-07-28T10:52:52.683Z,4.78
2018-07-28T10:55:26.990Z,6.92
2018-07-28T10:58:01.524Z,5.58
2018-07-28T11:00:36.080Z,4.22
2018-07-28T11:03:10.309Z,4.05
2018-07-28T11:05:44.905Z,4.20
2018-07-28T11:08:19.645Z,4.30
2018-07-28T11:10:53.979Z,4.67
2018-07-28T11:13:28.427Z,7.65
2018-07-28T11:16:03.416Z,7.83
2018-07-28T11:18:38.382Z,4.67
2018-07-28T11:21:12.926Z,4.80
2018-07-28T11:24:00.890Z,8.95
2018-07-28T11:26:40.167Z,4.47
2018-07-28T11:29:14.687Z,5.65
2018-07-28T11:32:13.262Z,4.80
2018-07-28T11:35:08.996Z,4.72
2018-07-28T11:38:22.436Z,4.92
2018-07-28T11:41:17.866Z,4.28
2018-07-28T11:44:13.780Z,4.37
2018-07-28T11:46:52.382Z,4.78
2018-07-28T11:49:29.269Z,5.80
2018-07-28T11:52:03.575Z,6.83
2018-07-28T11:54:38.046Z,4.60
2018-07-28T11:57:14.240Z,4.72
2018-07-28T11:59:49.819Z,5.00
2018-07-28T12:02:24.299Z,5.17
2018-07-28T12:04:58.692Z,6.70
2018-07-28T12:07:33.612Z,5.65
2018-07-28T12:10:10.408Z,4.62
2018-07-28T12:12:44.638Z,4.47
2018-07-28T12:15:19.109Z,6.65
2018-07-28T12:17:56.597Z,5.75
2018-07-28T12:20:31.037Z,4.87
2018-07-28T12:23:05.817Z,4.12
2018-07-28T12:25:40.159Z,4.95
2018-07-28T12:28:14.980Z,5.10
2018-07-28T12:30:49.168Z,6.97
2018-07-28T12:33:24.285Z,5.83
2018-07-28T12:36:00.971Z,5.22
2018-07-28T12:38:39.839Z,4.85
2018-07-28T12:41:14.462Z,4.60
2018-07-28T12:43:49.342Z,6.37
2018-07-28T12:46:25.800Z,4.83
2018-07-28T12:49:01.801Z,4.67
2018-07-28T12:51:36.110Z,6.20
2018-07-28T12:54:11.149Z,4.95
2018-07-28T12:56:46.867Z,5.00
2018-07-28T12:59:21.320Z,4.78
2018-07-28T13:01:57.166Z,5.62
2018-07-28T13:04:31.392Z,6.97
2018-07-28T13:07:07.698Z,4.78
2018-07-28T13:09:42.236Z,5.08
2018-07-28T13:12:16.590Z,6.78
2018-07-28T13:14:55.861Z,6.95
2018-07-28T13:17:32.458Z,10.60
2018-07-28T13:20:07.597Z,5.22
2018-07-28T13:22:50.544Z,6.08
2018-07-28T13:25:28.361Z,6.03
2018-07-28T13:28:03.414Z,5.87
2018-07-28T13:30:38.533Z,6.00
2018-07-28T13:33:13.555Z,6.03
2018-07-28T13:35:49.410Z,5.95
2018-07-28T13:38:24.130Z,5.67
2018-07-28T13:40:58.853Z,21.60
2018-07-28T13:43:33.220Z,34.25
2018-07-28T13:46:13.468Z,23.10
2018-07-28T13:48:48.589Z,19.52
2018-07-28T13:51:24.504Z,10.45
2018-07-28T13:53:59.179Z,15.78
2018-07-28T13:56:34.711Z,7.92
2018-07-28T13:59:09.393Z,8.08
2018-07-28T14:01:43.692Z,11.25
2018-07-28T14:04:17.422Z,9.23
2018-07-28T14:06:50.764Z,13.40
2018-07-28T14:09:25.533Z,12.97
2018-07-28T14:12:02.039Z,10.93
2018-07-28T14:14:36.312Z,19.47
2018-07-28T14:17:11.936Z,23.43
2018-07-28T14:19:46.620Z,18.53
2018-07-28T14:22:21.866Z,19.50
2018-07-28T14:24:56.299Z,14.07
2018-07-28T14:27:30.432Z,14.10
2018-07-28T14:30:04.973Z,14.47
2018-07-28T14:32:38.972Z,14.33
2018-07-28T14:35:13.207Z,15.23
2018-07-28T14:37:47.468Z,15.90
2018-07-28T14:40:21.834Z,16.73
2018-07-28T14:42:56.037Z,18.70
2018-07-28T14:45:30.549Z,16.03
2018-07-28T14:48:04.823Z,15.50
2018-07-28T14:50:38.768Z,15.93
2018-07-28T14:53:12.673Z,15.30
2018-07-28T14:55:47.117Z,16.43
2018-07-28T14:58:20.423Z,19.30
2018-07-28T15:00:54.397Z,20.37
2018-07-28T15:03:28.973Z,17.33
2018-07-28T15:06:03.189Z,17.73
2018-07-28T15:08:37.914Z,21.37
2018-07-28T15:11:12.263Z,20.33
2018-07-28T15:13:48.158Z,22.87
2018-07-28T15:16:22.802Z,23.73
2018-07-28T15:18:56.935Z,23.87
2018-07-28T15:21:38.858Z,23.37
2018-07-28T15:24:21.418Z,22.57
2018-07-28T15:26:55.548Z,21.97
2018-07-28T15:29:29.803Z,23.90
2018-07-28T15:32:04.034Z,20.43
2018-07-28T15:34:38.739Z,22.87
2018-07-28T15:37:12.861Z,20.47
2018-07-28T15:39:47.222Z,20.87
2018-07-28T15:42:22.935Z,21.63
2018-07-28T15:44:56.860Z,18.97
2018-07-28T15:47:31.578Z,18.97
2018-07-28T15:50:06.024Z,20.30
2018-07-28T15:52:41.472Z,19.63
2018-07-28T15:55:16.184Z,21.33
2018-07-28T15:57:51.170Z,20.20
2018-07-28T16:00:25.132Z,20.50
2018-07-28T16:03:09.789Z,18.27
2018-07-28T16:05:44.805Z,17.83
2018-07-28T16:08:20.116Z,18.67
2018-07-28T16:10:56.304Z,19.97
2018-07-28T16:13:30.882Z,19.07
2018-07-28T16:16:05.065Z,18.77
2018-07-28T16:18:38.350Z,18.40
2018-07-28T16:21:12.289Z,18.30
2018-07-28T16:23:46.329Z,19.07
2018-07-28T16:26:20.847Z,18.77
2018-07-28T16:28:54.909Z,20.57
2018-07-28T16:31:28.954Z,22.33
2018-07-28T16:34:02.921Z,20.53
2018-07-28T16:36:36.984Z,21.17
2018-07-28T16:39:12.757Z,20.43
2018-07-28T16:41:53.262Z,19.27
2018-07-28T16:44:32.408Z,17.10
2018-07-28T16:47:47.977Z,16.87
2018-07-28T16:50:25.012Z,17.00
2018-07-28T16:52:58.933Z,17.33
2018-07-28T16:55:33.270Z,16.57
2018-07-28T16:58:07.596Z,15.73
2018-07-28T17:00:41.838Z,14.33
2018-07-28T17:03:16.124Z,14.87
2018-07-28T17:05:50.936Z,14.23
2018-07-28T17:08:24.879Z,13.57
2018-07-28T17:10:59.490Z,13.97
2018-07-28T17:13:34.400Z,13.87
2018-07-28T17:16:08.438Z,13.23
2018-07-28T17:18:42.762Z,13.27
2018-07-28T17:21:17.188Z,13.43
2018-07-28T17:23:53.715Z,13.43
2018-07-28T17:26:28.256Z,11.40
2018-07-28T17:29:05.597Z,11.73
2018-07-28T17:31:47.954Z,8.57
2018-07-28T17:34:22.054Z,10.00
2018-07-28T17:36:56.061Z,12.27
2018-07-28T17:39:30.359Z,10.33
2018-07-28T17:42:04.866Z,12.07
2018-07-28T17:44:39.096Z,12.60
2018-07-28T17:47:13.601Z,13.90
2018-07-28T17:49:47.524Z,14.20
2018-07-28T17:52:21.625Z,14.00
2018-07-28T17:54:56.080Z,13.97
2018-07-28T17:57:30.741Z,15.67
2018-07-28T18:00:05.243Z,15.27
2018-07-28T18:02:40.070Z,16.30
2018-07-28T18:05:14.502Z,17.00
2018-07-28T18:07:48.867Z,15.47
2018-07-28T18:10:22.816Z,16.57
2018-07-28T18:12:56.796Z,16.57
2018-07-28T18:15:30.725Z,15.63
2018-07-28T18:18:05.142Z,15.97
2018-07-28T18:20:39.490Z,14.50
2018-07-28T18:23:13.075Z,20.87
2018-07-28T18:25:47.413Z,16.90
2018-07-28T18:28:21.745Z,16.80
2018-07-28T18:30:55.692Z,18.70
2018-07-28T18:33:29.679Z,17.60
2018-07-28T18:36:04.124Z,15.97
2018-07-28T18:38:38.182Z,14.60
2018-07-28T18:41:13.442Z,13.80
2018-07-28T18:43:47.497Z,13.60
2018-07-28T18:46:21.496Z,14.57
2018-07-28T18:48:55.738Z,16.87
2018-07-28T18:51:29.777Z,16.00
2018-07-28T18:54:03.758Z,16.57
2018-07-28T18:56:37.986Z,15.40
2018-07-28T18:59:12.820Z,13.77
2018-07-28T19:01:46.861Z,14.73
2018-07-28T19:04:20.903Z,16.07
2018-07-28T19:06:54.840Z,15.03
2018-07-28T19:09:34.001Z,14.67
2018-07-28T19:12:08.353Z,13.03
2018-07-28T19:14:42.656Z,14.63
2018-07-28T19:17:16.657Z,15.40
2018-07-28T19:19:50.677Z,14.63
2018-07-28T19:22:29.676Z,13.93
2018-07-28T19:25:03.876Z,14.73
2018-07-28T19:27:38.160Z,15.87
2018-07-28T19:30:12.185Z,14.77
2018-07-28T19:32:47.242Z,14.40
2018-07-28T19:35:21.156Z,15.43
2018-07-28T19:37:57.210Z,15.63
2018-07-28T19:40:31.445Z,15.80
2018-07-28T19:43:07.172Z,15.97
2018-07-28T19:45:41.273Z,16.00
2018-07-28T19:48:16.264Z,19.73
2018-07-28T19:50:53.134Z,16.13
2018-07-28T19:53:27.300Z,16.50
2018-07-28T19:56:02.237Z,17.13
2018-07-28T19:58:36.331Z,18.77
2018-07-28T20:01:10.375Z,18.00
2018-07-28T20:03:44.368Z,17.77
2018-07-28T20:06:18.334Z,17.90
2018-07-28T20:08:54.210Z,18.67
2018-07-28T20:11:28.219Z,19.23
2018-07-28T20:14:02.323Z,18.90
2018-07-28T20:16:36.879Z,20.53
2018-07-28T20:19:11.583Z,19.67
2018-07-28T20:21:46.055Z,22.73
2018-07-28T20:24:20.111Z,21.77
2018-07-28T20:26:54.524Z,20.23
2018-07-28T20:29:28.550Z,21.97
2018-07-28T20:32:02.565Z,22.17
2018-07-28T20:34:36.693Z,21.27
2018-07-28T20:37:10.735Z,20.63
2018-07-28T20:39:44.722Z,19.73
2018-07-28T20:42:18.723Z,13.30
2018-07-28T20:44:54.372Z,10.83
2018-07-28T20:47:28.915Z,8.33
2018-07-28T20:50:03.445Z,7.00
2018-07-28T20:52:38.878Z,9.73
2018-07-28T20:55:13.212Z,6.47
2018-07-28T20:57:47.243Z,5.40
2018-07-28T21:00:26.450Z,8.13
2018-07-28T21:03:01.817Z,9.37
2018-07-28T21:05:35.977Z,6.83
2018-07-28T21:08:10.565Z,11.40
2018-07-28T21:10:45.084Z,6.83
2018-07-28T21:13:19.572Z,7.03
2018-07-28T21:15:54.985Z,8.57
2018-07-28T21:18:32.733Z,8.60
2018-07-28T21:21:12.363Z,10.70
2018-07-28T21:24:03.875Z,8.93
2018-07-28T21:26:39.468Z,9.50
2018-07-28T21:29:13.498Z,9.67
2018-07-28T21:31:48.516Z,9.93
2018-07-28T21:34:22.553Z,12.20
2018-07-28T21:36:56.911Z,14.03
2018-07-28T21:39:31.005Z,16.13
2018-07-28T21:42:05.280Z,14.73
2018-07-28T21:44:39.405Z,15.80
2018-07-28T21:47:14.820Z,17.00
2018-07-28T21:49:49.765Z,16.63
2018-07-28T21:52:24.018Z,16.80
2018-07-28T21:54:58.005Z,16.07
2018-07-28T21:57:32.005Z,14.43
2018-07-28T22:00:07.732Z,14.03
2018-07-28T22:02:42.366Z,13.30
2018-07-28T22:05:16.571Z,12.50
2018-07-28T22:07:52.545Z,12.07
2018-07-28T22:10:31.869Z,12.20
2018-07-28T22:13:09.229Z,12.00
2018-07-28T22:16:28.116Z,11.30
2018-07-28T22:19:54.474Z,11.73
2018-07-28T22:23:24.576Z,10.80
2018-07-28T22:26:46.171Z,11.10
2018-07-28T22:29:55.703Z,9.80
2018-07-28T22:32:31.332Z,16.73
2018-07-28T22:35:05.762Z,10.17
2018-07-28T22:37:39.873Z,10.80
2018-07-28T22:40:14.494Z,9.47
2018-07-28T22:42:52.214Z,9.13
2018-07-28T22:45:26.901Z,9.97
2018-07-28T22:48:02.393Z,10.17
2018-07-28T22:50:36.988Z,9.47
2018-07-28T22:53:13.518Z,9.33
2018-07-28T22:55:47.970Z,8.90
2018-07-28T22:58:26.357Z,9.53
2018-07-28T23:01:04.521Z,9.77
2018-07-28T23:03:45.353Z,10.20
2018-07-28T23:06:24.665Z,11.07
2018-07-28T23:09:04.983Z,9.60
2018-07-28T23:11:45.741Z,9.03
2018-07-28T23:14:25.330Z,9.23
2018-07-28T23:17:03.759Z,9.23
2018-07-28T23:19:42.103Z,10.03
2018-07-28T23:22:26.028Z,8.57
2018-07-28T23:25:33.509Z,8.57
2018-07-28T23:28:52.277Z,9.17
2018-07-28T23:35:39.448Z,9.00
2018-07-28T23:38:22.038Z,8.93
2018-07-28T23:41:23.185Z,8.13
2018-07-28T23:43:57.395Z,8.10
2018-07-28T23:46:31.917Z,8.60
2018-07-28T23:49:05.860Z,7.30
2018-07-28T23:51:40.239Z,8.10
2018-07-28T23:54:14.149Z,8.50
2018-07-28T23:56:48.417Z,9.20
2018-07-28T23:59:21.802Z,8.70
